Aeroporto :







RITROVATECI SU...

 
LOGIN :

Iscrizione | Disclaimer

   EN    FR    IT 

 









Sommario :    VFR   VFR Marginale   IFR   IFR Intensivo   IFR Molto Intensivo
Visibilità : 
Base nubi : 
>= 8 km
>= 3000ft
5 / 8 km
1000 / 3000 ft
1500m / 5 km
500 / 1000 ft
800 / 1500m
200 / 500 ft
< 800m
< 200 ft
Simboli :   Temporali  Nebbia  Neve Forte  Precipitazioni Forti  Vento > 20 kt






- Altitudine del aeroporto : 76 ft
- Codice IATA : PWM


KPWM - Portland International Jetport

ULTIMO METAR :
  • 040251Z 03015G22KT 10SM OVC021 07/03 A2995 RMK AO2 PK WND 04026/0224 RAE23 SLP142 P0001 60001 T00720028 51025

METARs OBSOLETI :
  • 040151Z 04014G22KT 8SM -RA BKN022 OVC050 07/04 A2994 RMK AO2 RAB0052 SLP137 P0000 T00720039
  • 040051Z 03013G20KT 10SM OVC024 08/04 A2991 RMK AO2 SLP128 T00830039

TAF KPWM
Valido dal 04 a 00 ore il 05 a 00 ore UTC


032332Z 0400/0424 02012G22KT P6SM OVC015
TEMPO 0400/0402 -SHRA
FM041000 03010KT P6SM OVC020
FM042000 15007KT P6SM BKN035



MetMap, La meteo Aeronautica in un colpo d'occhio ! - Copyright ORBIFLY Dicembre 2007 - Disclaimer

ORBIFLY MET'MAP TEAM :

Programmazione e sviluppo : Alexandra Zaïnal
Concezione : Baudouin d'Aumeries
Aiuto per la programmazione : Marc-Olivier Méhu
Supporto tecnico e logistico : Manuel Goepfert
Aiuto per la traduzione : Arnaldo La Scala

Contatto : metmap@orbifly.com




FONTI E CREDITI :

   NOAA